createdAt,value
2023-04-20T00:00:47.681Z,58.81
2023-04-20T00:03:14.639Z,58.40
2023-04-20T00:05:41.356Z,59.59
2023-04-20T00:08:08.170Z,62.59
2023-04-20T00:10:34.718Z,64.15
2023-04-20T00:13:01.224Z,63.06
2023-04-20T00:15:27.838Z,61.88
2023-04-20T00:17:54.419Z,61.14
2023-04-20T00:20:21.022Z,60.79
2023-04-20T00:22:47.688Z,60.55
2023-04-20T00:25:14.310Z,60.21
2023-04-20T00:27:40.907Z,60.00
2023-04-20T00:30:08.342Z,59.91
2023-04-20T00:32:36.117Z,59.80
2023-04-20T00:35:02.847Z,58.71
2023-04-20T00:37:29.725Z,58.96
2023-04-20T00:39:57.656Z,60.21
2023-04-20T00:42:24.633Z,63.05
2023-04-20T00:44:51.561Z,64.51
2023-04-20T00:47:18.154Z,63.63
2023-04-20T00:49:45.006Z,62.85
2023-04-20T00:52:11.760Z,62.37
2023-04-20T00:54:39.011Z,61.62
2023-04-20T00:57:05.804Z,61.16
2023-04-20T00:59:34.616Z,60.66
2023-04-20T01:02:01.359Z,60.40
2023-04-20T01:04:29.347Z,60.15
2023-04-20T01:06:58.388Z,58.88
2023-04-20T01:09:24.892Z,58.45
2023-04-20T01:11:51.419Z,59.55
2023-04-20T01:14:18.042Z,60.65
2023-04-20T01:16:44.964Z,63.31
2023-04-20T01:19:12.610Z,64.76
2023-04-20T01:21:39.135Z,63.80
2023-04-20T01:24:06.406Z,62.54
2023-04-20T01:26:32.985Z,61.08
2023-04-20T01:28:59.619Z,60.20
2023-04-20T01:31:26.438Z,60.15
2023-04-20T01:33:52.972Z,60.21
2023-04-20T01:36:21.425Z,60.09
2023-04-20T01:38:48.642Z,58.67
2023-04-20T01:41:15.771Z,58.65
2023-04-20T01:43:42.554Z,59.74
2023-04-20T01:46:11.717Z,62.74
2023-04-20T01:48:39.692Z,63.77
2023-04-20T01:51:06.313Z,63.01
2023-04-20T01:53:32.804Z,61.85
2023-04-20T01:55:59.483Z,61.18
2023-04-20T01:58:26.081Z,60.47
2023-04-20T02:00:52.817Z,60.09
2023-04-20T02:03:19.594Z,58.64
2023-04-20T02:05:47.002Z,58.47
2023-04-20T02:08:13.712Z,59.28
2023-04-20T02:10:40.374Z,60.94
2023-04-20T02:13:08.979Z,63.64
2023-04-20T02:19:01.623Z,63.61
2023-04-20T02:21:28.285Z,62.10
2023-04-20T02:23:54.894Z,61.30
2023-04-20T02:26:21.465Z,60.98
2023-04-20T02:28:48.000Z,60.70
2023-04-20T02:31:14.561Z,60.71
2023-04-20T02:33:50.016Z,60.39
2023-04-20T02:36:29.813Z,60.36
2023-04-20T02:38:56.454Z,60.09
2023-04-20T02:41:23.131Z,58.41
2023-04-20T02:43:49.740Z,58.00
2023-04-20T02:46:17.391Z,59.11
2023-04-20T02:48:44.101Z,60.11
2023-04-20T02:51:11.075Z,62.72
2023-04-20T02:53:42.385Z,64.14
2023-04-20T02:56:16.746Z,63.03
2023-04-20T02:58:48.320Z,61.75
2023-04-20T03:01:24.165Z,61.20
2023-04-20T03:03:57.865Z,60.54
2023-04-20T03:06:24.757Z,60.06
2023-04-20T03:08:54.066Z,58.82
2023-04-20T03:11:39.229Z,58.40
2023-04-20T03:14:06.248Z,59.80
2023-04-20T03:16:33.350Z,62.61
2023-04-20T03:19:00.020Z,64.07
2023-04-20T03:21:26.650Z,63.27
2023-04-20T03:23:53.753Z,62.63
2023-04-20T03:26:20.462Z,62.03
2023-04-20T03:29:05.937Z,61.85
2023-04-20T03:31:32.661Z,61.34
2023-04-20T03:33:59.569Z,61.03
2023-04-20T03:36:28.358Z,60.60
2023-04-20T03:38:56.465Z,60.25
2023-04-20T03:41:23.173Z,60.18
2023-04-20T03:43:49.803Z,58.19
2023-04-20T03:46:16.492Z,58.59
2023-04-20T03:48:44.397Z,59.49
2023-04-20T03:51:10.915Z,62.81
2023-04-20T03:53:39.587Z,63.97
2023-04-20T03:56:07.682Z,62.60
2023-04-20T03:58:34.326Z,62.03
2023-04-20T04:01:10.530Z,61.37
2023-04-20T04:03:39.137Z,60.42
2023-04-20T04:06:07.073Z,59.13
2023-04-20T04:08:33.724Z,58.73
2023-04-20T04:11:00.834Z,60.45
2023-04-20T04:13:27.446Z,63.31
2023-04-20T04:15:54.028Z,65.20
2023-04-20T04:18:22.913Z,64.31
2023-04-20T04:20:49.879Z,62.69
2023-04-20T04:23:16.494Z,61.34
2023-04-20T04:25:47.292Z,60.63
2023-04-20T04:28:14.933Z,59.09
2023-04-20T04:30:48.416Z,59.31
2023-04-20T04:33:15.067Z,60.72
2023-04-20T04:35:43.969Z,63.46
2023-04-20T04:38:13.103Z,63.46
2023-04-20T04:40:41.902Z,61.23
2023-04-20T04:43:10.127Z,59.02
2023-04-20T04:45:43.431Z,58.86
2023-04-20T04:48:12.532Z,59.81
2023-04-20T04:50:39.738Z,60.95
2023-04-20T04:53:06.867Z,63.97
2023-04-20T04:55:33.832Z,64.05
2023-04-20T04:58:01.764Z,61.82
2023-04-20T05:00:29.273Z,59.56
2023-04-20T05:02:56.067Z,57.65
2023-04-20T05:05:23.180Z,57.74
2023-04-20T05:07:49.689Z,59.68
2023-04-20T05:10:16.474Z,61.85
2023-04-20T05:12:43.112Z,63.81
2023-04-20T05:15:10.009Z,63.59
2023-04-20T05:17:36.642Z,61.26
2023-04-20T05:20:06.340Z,59.65
2023-04-20T05:22:33.062Z,57.69
2023-04-20T05:24:59.614Z,58.64
2023-04-20T05:27:26.104Z,60.42
2023-04-20T05:29:52.636Z,61.37
2023-04-20T05:32:19.248Z,62.36
2023-04-20T05:34:45.987Z,63.67
2023-04-20T05:37:13.365Z,62.23
2023-04-20T05:39:40.362Z,60.23
2023-04-20T05:42:06.950Z,57.93
2023-04-20T05:44:34.110Z,57.53
2023-04-20T05:47:00.645Z,58.38
2023-04-20T05:49:27.171Z,58.90
2023-04-20T05:51:53.749Z,59.26
2023-04-20T05:54:20.441Z,59.20
2023-04-20T05:56:46.950Z,58.63
2023-04-20T05:59:13.604Z,57.82
2023-04-20T06:01:40.246Z,56.98
2023-04-20T06:04:07.102Z,57.54
2023-04-20T06:06:34.100Z,55.97
2023-04-20T06:09:00.974Z,55.17
2023-04-20T06:11:27.563Z,55.10
2023-04-20T06:13:54.300Z,54.63
2023-04-20T06:16:21.124Z,53.84
2023-04-20T06:18:47.839Z,53.70
2023-04-20T06:21:16.174Z,53.54
2023-04-20T06:23:44.320Z,54.22
2023-04-20T06:26:11.528Z,53.05
2023-04-20T06:28:38.678Z,51.70
2023-04-20T06:31:06.085Z,51.14
2023-04-20T06:33:32.801Z,51.19
2023-04-20T06:35:59.630Z,49.36
2023-04-20T06:38:26.399Z,48.24
2023-04-20T06:40:53.012Z,47.89
2023-04-20T06:43:19.641Z,46.96
2023-04-20T06:45:46.698Z,45.33
2023-04-20T06:48:30.128Z,44.90
2023-04-20T06:50:58.428Z,43.65
2023-04-20T06:53:25.167Z,42.67
2023-04-20T06:55:54.839Z,42.09
2023-04-20T06:58:21.708Z,41.64
2023-04-20T07:00:48.262Z,40.08
2023-04-20T07:03:14.923Z,37.25
2023-04-20T07:05:41.694Z,36.34
2023-04-20T07:08:09.460Z,34.13
2023-04-20T07:10:36.182Z,33.17
2023-04-20T07:13:02.755Z,32.33
2023-04-20T07:15:29.330Z,31.81
2023-04-20T07:17:55.986Z,30.41
2023-04-20T07:20:22.654Z,27.74
2023-04-20T07:22:49.287Z,27.76
2023-04-20T07:25:17.773Z,27.07
2023-04-20T07:27:44.456Z,25.00
2023-04-20T07:30:12.115Z,23.83
2023-04-20T07:32:40.221Z,22.35
2023-04-20T07:35:07.772Z,22.32
2023-04-20T07:37:34.434Z,22.94
2023-04-20T07:40:01.178Z,22.24
2023-04-20T07:42:29.852Z,21.49
2023-04-20T07:44:56.620Z,21.30
2023-04-20T07:47:23.272Z,21.77
2023-04-20T07:49:50.308Z,21.64
2023-04-20T07:52:18.289Z,22.63
2023-04-20T07:54:45.752Z,22.89
2023-04-20T07:57:12.668Z,22.45
2023-04-20T07:59:40.877Z,21.23
2023-04-20T08:02:08.568Z,20.62
2023-04-20T08:04:39.254Z,20.03
2023-04-20T08:07:06.175Z,19.30
2023-04-20T08:09:33.220Z,18.54
2023-04-20T08:12:00.654Z,18.75
2023-04-20T08:14:27.652Z,18.02
2023-04-20T08:16:54.361Z,18.43
2023-04-20T08:19:21.244Z,17.66
2023-04-20T08:21:47.796Z,17.57
2023-04-20T08:24:14.487Z,16.98
2023-04-20T08:26:43.452Z,16.71
2023-04-20T08:29:10.554Z,16.68
2023-04-20T08:31:37.293Z,16.36
2023-04-20T08:34:04.428Z,16.01
2023-04-20T08:36:32.265Z,15.91
2023-04-20T08:39:13.941Z,16.22
2023-04-20T08:41:41.447Z,16.91
2023-04-20T08:44:08.569Z,17.21
2023-04-20T08:46:37.705Z,18.14
2023-04-20T08:49:04.410Z,17.97
2023-04-20T08:51:32.682Z,17.42
2023-04-20T08:54:05.546Z,17.06
2023-04-20T08:56:44.134Z,18.22
2023-04-20T08:59:12.898Z,18.58
2023-04-20T09:01:41.729Z,18.95
2023-04-20T09:04:29.614Z,18.28
2023-04-20T09:06:56.719Z,17.87
2023-04-20T09:09:25.694Z,18.31
2023-04-20T09:12:07.218Z,17.28
2023-04-20T09:14:45.206Z,16.15
2023-04-20T09:17:14.323Z,15.62
2023-04-20T09:19:41.587Z,15.38
2023-04-20T09:22:08.169Z,15.19
2023-04-20T09:24:36.737Z,15.78
2023-04-20T09:27:16.909Z,15.56
2023-04-20T09:29:44.233Z,16.13
2023-04-20T09:32:24.112Z,16.34
2023-04-20T09:34:51.262Z,17.44
2023-04-20T09:37:18.004Z,18.21
2023-04-20T09:39:46.022Z,17.60
2023-04-20T09:42:14.521Z,17.98
2023-04-20T09:44:41.563Z,17.85
2023-04-20T09:47:08.884Z,16.54
2023-04-20T09:49:41.276Z,16.53
2023-04-20T09:52:08.498Z,16.08
2023-04-20T09:54:37.347Z,15.65
2023-04-20T09:57:05.945Z,15.33
2023-04-20T09:59:33.454Z,14.85
2023-04-20T10:02:00.224Z,15.04
2023-04-20T10:04:27.117Z,15.79
2023-04-20T10:06:55.713Z,16.37
2023-04-20T10:09:28.677Z,16.99
2023-04-20T10:12:06.785Z,16.94
2023-04-20T10:14:33.652Z,16.88
2023-04-20T10:17:00.595Z,17.14
2023-04-20T10:19:38.741Z,17.22
2023-04-20T10:22:06.906Z,17.14
2023-04-20T10:24:33.663Z,17.34
2023-04-20T10:27:00.314Z,16.77
2023-04-20T10:29:28.226Z,16.11
2023-04-20T10:31:55.969Z,15.18
2023-04-20T10:34:36.567Z,15.28
2023-04-20T10:37:12.577Z,16.03
2023-04-20T10:39:46.692Z,16.01
2023-04-20T10:42:15.486Z,15.29
2023-04-20T10:44:48.197Z,14.73
2023-04-20T10:47:15.546Z,13.52
2023-04-20T10:49:42.117Z,13.83
2023-04-20T10:52:08.664Z,13.69
2023-04-20T10:54:39.723Z,13.81
2023-04-20T10:57:07.321Z,13.53
2023-04-20T10:59:41.970Z,13.35
2023-04-20T11:02:10.829Z,13.29
2023-04-20T11:04:37.916Z,14.15
2023-04-20T11:07:07.353Z,14.21
2023-04-20T11:09:34.564Z,14.68
2023-04-20T11:12:06.264Z,14.26
2023-04-20T11:14:35.979Z,14.53
2023-04-20T11:17:02.737Z,14.81
2023-04-20T11:19:34.410Z,15.16
2023-04-20T11:22:02.169Z,15.94
2023-04-20T11:24:31.783Z,15.92
2023-04-20T11:26:58.874Z,16.31
2023-04-20T11:29:30.219Z,15.77
2023-04-20T11:31:57.759Z,15.79
2023-04-20T11:34:24.472Z,15.72
2023-04-20T11:36:52.524Z,15.91
2023-04-20T11:39:29.704Z,15.88
2023-04-20T11:41:59.349Z,15.75
2023-04-20T11:44:29.208Z,15.96
2023-04-20T11:46:59.841Z,16.51
2023-04-20T11:49:28.722Z,17.72
2023-04-20T11:51:55.858Z,19.11
2023-04-20T11:54:23.814Z,18.38
2023-04-20T11:56:50.841Z,17.43
2023-04-20T11:59:20.056Z,16.62
2023-04-20T12:01:47.871Z,15.70
2023-04-20T12:04:15.802Z,15.19
2023-04-20T12:06:42.827Z,16.23
2023-04-20T12:09:10.645Z,16.36
2023-04-20T12:11:37.303Z,17.38
2023-04-20T12:14:04.988Z,17.82
2023-04-20T12:16:31.802Z,18.86
2023-04-20T12:18:58.556Z,19.72
2023-04-20T12:21:25.229Z,20.37
2023-04-20T12:23:51.993Z,20.70
2023-04-20T12:26:18.638Z,22.14
2023-04-20T12:28:45.399Z,22.88
2023-04-20T12:31:12.406Z,22.66
2023-04-20T12:33:39.219Z,20.90
2023-04-20T12:36:06.154Z,20.52
2023-04-20T12:38:32.840Z,19.99
2023-04-20T12:40:59.557Z,19.70
2023-04-20T12:43:26.161Z,18.91
2023-04-20T12:45:52.794Z,18.39
2023-04-20T12:48:19.479Z,18.86
2023-04-20T12:50:46.483Z,19.56
2023-04-20T12:53:13.324Z,20.17
2023-04-20T12:55:40.467Z,20.75
2023-04-20T12:58:07.153Z,22.41
2023-04-20T13:00:34.438Z,22.07
2023-04-20T13:03:01.537Z,21.78
2023-04-20T13:05:29.018Z,19.56
2023-04-20T13:07:56.520Z,19.40
2023-04-20T13:10:23.753Z,18.67
2023-04-20T13:12:52.344Z,18.60
2023-04-20T13:15:31.892Z,18.45
2023-04-20T13:18:06.359Z,17.65
2023-04-20T13:20:33.109Z,17.25
2023-04-20T13:23:01.275Z,17.82
2023-04-20T13:25:32.628Z,17.59
2023-04-20T13:28:00.722Z,18.02
2023-04-20T13:30:28.550Z,17.81
2023-04-20T13:32:55.402Z,17.85
2023-04-20T13:35:22.225Z,18.01
2023-04-20T13:37:49.045Z,18.82
2023-04-20T13:40:16.108Z,19.25
2023-04-20T13:42:44.408Z,20.54
2023-04-20T13:45:13.484Z,21.35
2023-04-20T13:47:40.562Z,22.21
2023-04-20T13:50:08.615Z,22.24
2023-04-20T13:52:35.684Z,22.59
2023-04-20T13:55:02.622Z,23.25
2023-04-20T13:57:33.483Z,23.13
2023-04-20T14:00:02.553Z,23.35
2023-04-20T14:02:33.865Z,23.33
2023-04-20T14:05:04.546Z,23.51
2023-04-20T14:07:34.412Z,23.89
2023-04-20T14:10:06.944Z,24.31
2023-04-20T14:12:36.581Z,24.89
2023-04-20T14:15:05.483Z,24.23
2023-04-20T14:17:34.631Z,24.77
2023-04-20T14:20:04.264Z,24.57
2023-04-20T14:22:36.553Z,24.71
2023-04-20T14:25:05.747Z,23.84
2023-04-20T14:27:34.556Z,24.22
2023-04-20T14:30:04.722Z,23.28
2023-04-20T14:32:36.278Z,22.98
2023-04-20T14:35:06.185Z,22.40
2023-04-20T14:37:36.502Z,22.00
2023-04-20T14:40:07.506Z,22.81
2023-04-20T14:42:38.558Z,22.87
2023-04-20T14:45:07.788Z,22.81
2023-04-20T14:47:36.563Z,23.40
2023-04-20T14:50:05.583Z,24.39
2023-04-20T14:52:35.578Z,24.46
2023-04-20T14:55:04.870Z,25.02
2023-04-20T15:05:02.515Z,25.94
2023-04-20T15:07:29.890Z,26.39
2023-04-20T15:09:56.516Z,26.44
2023-04-20T15:12:23.216Z,26.68
2023-04-20T15:14:49.814Z,26.59
2023-04-20T15:17:16.614Z,26.36
2023-04-20T15:19:46.161Z,26.61
2023-04-20T15:22:13.620Z,26.04
2023-04-20T15:24:41.292Z,26.63
2023-04-20T15:27:08.102Z,26.79
2023-04-20T15:29:34.738Z,26.95
2023-04-20T15:32:01.654Z,27.88
2023-04-20T15:34:29.235Z,27.98
2023-04-20T15:36:56.367Z,27.70
2023-04-20T15:39:23.207Z,28.25
2023-04-20T15:41:49.893Z,28.13
2023-04-20T15:44:17.106Z,28.30
2023-04-20T15:46:44.161Z,28.36
2023-04-20T15:49:10.906Z,27.75
2023-04-20T15:51:38.624Z,27.08
2023-04-20T15:54:06.894Z,27.96
2023-04-20T15:56:33.483Z,28.68
2023-04-20T15:59:00.284Z,28.54
2023-04-20T16:01:27.584Z,29.52
2023-04-20T16:03:54.606Z,29.82
2023-04-20T16:06:21.837Z,29.23
2023-04-20T16:08:50.808Z,30.55
2023-04-20T16:11:17.544Z,30.62
2023-04-20T16:13:44.503Z,29.51
2023-04-20T16:16:11.451Z,29.81
2023-04-20T16:18:38.048Z,29.82
2023-04-20T16:21:04.672Z,29.72
2023-04-20T16:23:31.449Z,30.00
2023-04-20T16:25:58.619Z,30.64
2023-04-20T16:28:26.459Z,30.56
2023-04-20T16:30:53.090Z,30.95
2023-04-20T16:33:20.281Z,30.43
2023-04-20T16:35:46.899Z,29.47
2023-04-20T16:38:13.503Z,29.82
2023-04-20T16:40:40.240Z,30.25
2023-04-20T16:43:06.845Z,29.25
2023-04-20T16:45:33.696Z,30.16
2023-04-20T16:48:00.838Z,30.71
2023-04-20T16:50:27.922Z,30.94
2023-04-20T16:52:56.791Z,31.16
2023-04-20T16:55:24.009Z,30.73
2023-04-20T16:57:50.640Z,31.71
2023-04-20T17:00:17.714Z,32.09
2023-04-20T17:02:44.513Z,32.29
2023-04-20T17:05:11.316Z,32.28
2023-04-20T17:07:37.896Z,32.70
2023-04-20T17:10:06.984Z,32.87
2023-04-20T17:12:33.642Z,33.25
2023-04-20T17:15:00.950Z,33.25
2023-04-20T17:17:28.344Z,33.35
2023-04-20T17:19:55.289Z,33.96
2023-04-20T17:22:22.008Z,34.14
2023-04-20T17:24:48.665Z,34.35
2023-04-20T17:27:16.088Z,35.15
2023-04-20T17:29:44.775Z,35.12
2023-04-20T17:32:12.195Z,35.24
2023-04-20T17:34:40.185Z,35.60
2023-04-20T17:37:07.270Z,35.65
2023-04-20T17:39:34.003Z,36.26
2023-04-20T17:42:01.456Z,36.52
2023-04-20T17:44:28.063Z,37.03
2023-04-20T17:46:54.836Z,37.59
2023-04-20T17:49:21.505Z,37.65
2023-04-20T17:51:48.128Z,37.90
2023-04-20T17:54:15.601Z,38.08
2023-04-20T17:56:42.386Z,38.49
2023-04-20T17:59:09.530Z,38.88
2023-04-20T18:01:36.221Z,39.44
2023-04-20T18:04:04.068Z,39.28
2023-04-20T18:06:33.189Z,39.27
2023-04-20T18:09:01.082Z,39.56
2023-04-20T18:11:28.128Z,39.56
2023-04-20T18:13:54.671Z,39.63
2023-04-20T18:16:21.734Z,40.08
2023-04-20T18:18:50.471Z,40.29
2023-04-20T18:21:17.311Z,40.77
2023-04-20T18:23:43.947Z,40.97
2023-04-20T18:26:17.155Z,41.22
2023-04-20T18:28:47.303Z,41.55
2023-04-20T18:31:14.311Z,41.62
2023-04-20T18:33:41.030Z,41.94
2023-04-20T18:36:07.869Z,42.32
2023-04-20T18:38:35.435Z,42.95
2023-04-20T18:41:02.358Z,43.12
2023-04-20T18:43:28.978Z,43.08
2023-04-20T18:45:55.616Z,43.53
2023-04-20T18:48:22.153Z,43.79
2023-04-20T18:50:49.043Z,43.90
2023-04-20T18:53:15.848Z,44.52
2023-04-20T18:55:42.486Z,44.85
2023-04-20T18:58:09.078Z,44.61
2023-04-20T19:00:35.915Z,44.52
2023-04-20T19:03:02.840Z,45.10
2023-04-20T19:05:31.016Z,44.84
2023-04-20T19:07:57.722Z,45.72
2023-04-20T19:10:25.780Z,45.55
2023-04-20T19:12:52.419Z,46.15
2023-04-20T19:15:25.406Z,45.83
2023-04-20T19:17:54.571Z,45.65
2023-04-20T19:20:23.617Z,45.92
2023-04-20T19:22:50.529Z,46.26
2023-04-20T19:25:17.185Z,46.25
2023-04-20T19:27:43.838Z,46.12
2023-04-20T19:30:10.856Z,47.17
2023-04-20T19:32:37.711Z,47.20
2023-04-20T19:35:04.592Z,46.93
2023-04-20T19:37:31.228Z,47.10
2023-04-20T19:39:57.813Z,47.62
2023-04-20T19:42:24.555Z,48.04
2023-04-20T19:44:51.147Z,48.43
2023-04-20T19:47:17.762Z,49.22
2023-04-20T19:49:44.365Z,49.41
2023-04-20T19:52:11.075Z,49.62
2023-04-20T19:54:37.702Z,49.34
2023-04-20T19:57:04.327Z,49.13
2023-04-20T19:59:32.799Z,48.79
2023-04-20T20:01:59.756Z,48.91
2023-04-20T20:04:27.178Z,49.56
2023-04-20T20:06:54.315Z,49.66
2023-04-20T20:09:24.067Z,49.89
2023-04-20T20:11:51.334Z,49.86
2023-04-20T20:14:18.570Z,50.00
2023-04-20T20:16:45.409Z,50.51
2023-04-20T20:19:12.038Z,50.58
2023-04-20T20:21:38.664Z,49.91
2023-04-20T20:24:05.556Z,50.08
2023-04-20T20:26:32.464Z,50.17
2023-04-20T20:28:59.238Z,50.43
2023-04-20T20:31:25.917Z,51.09
2023-04-20T20:33:52.704Z,50.79
2023-04-20T20:36:19.679Z,50.90
2023-04-20T20:38:47.316Z,51.03
2023-04-20T20:41:14.184Z,51.40
2023-04-20T20:43:43.873Z,51.63
2023-04-20T20:46:10.980Z,51.55
2023-04-20T20:48:37.643Z,51.79
2023-04-20T20:51:04.378Z,52.06
2023-04-20T20:53:31.184Z,51.94
2023-04-20T20:55:57.834Z,52.36
2023-04-20T20:58:24.760Z,52.52
2023-04-20T21:00:51.442Z,52.72
2023-04-20T21:03:18.880Z,52.81
2023-04-20T21:05:46.208Z,53.01
2023-04-20T21:08:13.142Z,53.11
2023-04-20T21:10:40.052Z,53.20
2023-04-20T21:13:07.335Z,53.31
2023-04-20T21:15:34.343Z,53.63
2023-04-20T21:18:01.197Z,53.23
2023-04-20T21:20:27.888Z,53.29
2023-04-20T21:22:54.640Z,53.56
2023-04-20T21:25:21.425Z,53.42
2023-04-20T21:27:48.270Z,53.67
2023-04-20T21:30:14.971Z,53.46
2023-04-20T21:32:41.723Z,53.51
2023-04-20T21:35:08.790Z,54.02
2023-04-20T21:37:36.093Z,54.18
2023-04-20T21:40:03.737Z,54.16
2023-04-20T21:42:30.640Z,54.22
2023-04-20T21:44:57.327Z,54.27
2023-04-20T21:47:24.032Z,54.71
2023-04-20T21:49:50.788Z,55.00
2023-04-20T21:52:17.548Z,55.03
2023-04-20T21:54:44.286Z,55.02
2023-04-20T21:57:10.978Z,55.46
2023-04-20T21:59:37.692Z,55.35
2023-04-20T22:02:04.793Z,55.34
2023-04-20T22:04:32.302Z,55.51
2023-04-20T22:07:00.621Z,55.19
2023-04-20T22:09:27.339Z,55.82
2023-04-20T22:11:54.132Z,56.20
2023-04-20T22:14:20.902Z,56.25
2023-04-20T22:16:48.077Z,55.78
2023-04-20T22:19:14.933Z,56.05
2023-04-20T22:21:43.104Z,56.30
2023-04-20T22:24:09.835Z,56.47
2023-04-20T22:26:36.631Z,56.67
2023-04-20T22:29:03.325Z,56.85
2023-04-20T22:31:30.084Z,56.76
2023-04-20T22:33:56.976Z,57.05
2023-04-20T22:36:23.583Z,56.92
2023-04-20T22:38:50.250Z,57.26
2023-04-20T22:41:17.592Z,58.26
2023-04-20T22:43:46.825Z,58.48
2023-04-20T22:46:13.478Z,57.85
2023-04-20T22:48:41.780Z,56.94
2023-04-20T22:51:08.380Z,57.38
2023-04-20T22:53:35.004Z,57.56
2023-04-20T22:56:07.816Z,57.20
2023-04-20T22:58:34.472Z,57.12
2023-04-20T23:01:01.181Z,57.04
2023-04-20T23:03:28.085Z,56.82
2023-04-20T23:05:57.473Z,56.94
2023-04-20T23:08:25.677Z,56.63
2023-04-20T23:10:55.889Z,56.61
2023-04-20T23:13:24.833Z,56.83
2023-04-20T23:15:52.347Z,56.79
2023-04-20T23:18:19.022Z,57.19
2023-04-20T23:20:45.990Z,57.49
2023-04-20T23:23:12.574Z,58.17
2023-04-20T23:25:39.131Z,58.21
2023-04-20T23:28:06.087Z,58.39
2023-04-20T23:30:32.744Z,58.95
2023-04-20T23:32:59.462Z,58.96
2023-04-20T23:35:26.085Z,59.37
2023-04-20T23:37:52.951Z,59.00
2023-04-20T23:40:19.534Z,59.38
2023-04-20T23:42:46.084Z,59.72
2023-04-20T23:45:12.694Z,59.54
2023-04-20T23:47:39.347Z,59.76
2023-04-20T23:50:06.752Z,59.67
2023-04-20T23:52:33.320Z,60.10
2023-04-20T23:54:59.833Z,60.22
2023-04-20T23:57:26.452Z,60.33
2023-04-20T23:59:53.613Z,60.28
